sensor_id;sensor_type;location;lat;lon;timestamp;P1;durP1;ratioP1;P2;durP2;ratioP2
2021;SDS011;1015;49.756;6.994;2023-04-07T07:25:04;7.13;;;2.80;;
2021;SDS011;1015;49.756;6.994;2023-04-07T07:27:31;6.33;;;4.20;;
2021;SDS011;1015;49.756;6.994;2023-04-07T07:29:59;5.90;;;4.30;;
2021;SDS011;1015;49.756;6.994;2023-04-07T07:32:26;5.87;;;4.17;;
2021;SDS011;1015;49.756;6.994;2023-04-07T07:34:53;5.57;;;3.83;;
2021;SDS011;1015;49.756;6.994;2023-04-07T07:37:20;6.33;;;4.17;;
2021;SDS011;1015;49.756;6.994;2023-04-07T07:39:47;7.97;;;4.63;;
2021;SDS011;1015;49.756;6.994;2023-04-07T07:42:16;7.53;;;5.10;;
2021;SDS011;1015;49.756;6.994;2023-04-07T07:44:43;7.10;;;4.60;;
2021;SDS011;1015;49.756;6.994;2023-04-07T07:47:11;6.47;;;4.70;;
2021;SDS011;1015;49.756;6.994;2023-04-07T07:49:38;5.97;;;4.30;;
2021;SDS011;1015;49.756;6.994;2023-04-07T07:52:05;5.73;;;4.40;;
2021;SDS011;1015;49.756;6.994;2023-04-07T07:54:33;5.70;;;4.20;;
2021;SDS011;1015;49.756;6.994;2023-04-07T07:57:00;8.47;;;4.90;;
2021;SDS011;1015;49.756;6.994;2023-04-07T07:59:30;6.73;;;4.70;;
2021;SDS011;1015;49.756;6.994;2023-04-07T08:01:57;8.10;;;4.70;;
2021;SDS011;1015;49.756;6.994;2023-04-07T08:04:24;9.77;;;6.23;;
2021;SDS011;1015;49.756;6.994;2023-04-07T08:06:51;9.63;;;6.40;;
2021;SDS011;1015;49.756;6.994;2023-04-07T08:09:19;7.63;;;5.83;;
2021;SDS011;1015;49.756;6.994;2023-04-07T08:11:46;9.60;;;6.53;;
2021;SDS011;1015;49.756;6.994;2023-04-07T08:14:13;10.50;;;6.47;;
2021;SDS011;1015;49.756;6.994;2023-04-07T08:16:42;11.40;;;7.10;;
2021;SDS011;1015;49.756;6.994;2023-04-07T08:19:09;11.93;;;7.33;;
2021;SDS011;1015;49.756;6.994;2023-04-07T08:21:37;8.87;;;6.53;;
2021;SDS011;1015;49.756;6.994;2023-04-07T08:24:04;9.70;;;6.30;;
2021;SDS011;1015;49.756;6.994;2023-04-07T08:26:32;14.00;;;7.20;;
2021;SDS011;1015;49.756;6.994;2023-04-07T08:28:59;10.57;;;6.83;;
2021;SDS011;1015;49.756;6.994;2023-04-07T08:31:26;12.23;;;7.17;;
2021;SDS011;1015;49.756;6.994;2023-04-07T08:33:55;13.50;;;7.67;;
2021;SDS011;1015;49.756;6.994;2023-04-07T08:36:23;15.27;;;7.93;;
2021;SDS011;1015;49.756;6.994;2023-04-07T08:38:51;11.57;;;7.73;;
2021;SDS011;1015;49.756;6.994;2023-04-07T08:41:19;12.27;;;7.90;;
2021;SDS011;1015;49.756;6.994;2023-04-07T08:43:47;11.03;;;7.20;;
2021;SDS011;1015;49.756;6.994;2023-04-07T08:46:15;14.10;;;7.50;;
2021;SDS011;1015;49.756;6.994;2023-04-07T08:48:45;12.40;;;7.37;;
2021;SDS011;1015;49.756;6.994;2023-04-07T08:51:18;13.87;;;8.37;;
2021;SDS011;1015;49.756;6.994;2023-04-07T08:53:48;11.40;;;7.30;;
2021;SDS011;1015;49.756;6.994;2023-04-07T08:56:17;13.10;;;9.07;;
2021;SDS011;1015;49.756;6.994;2023-04-07T08:58:47;12.60;;;7.97;;
2021;SDS011;1015;49.756;6.994;2023-04-07T09:01:14;11.27;;;8.00;;
2021;SDS011;1015;49.756;6.994;2023-04-07T09:03:42;12.60;;;8.60;;
2021;SDS011;1015;49.756;6.994;2023-04-07T09:06:10;16.17;;;9.20;;
2021;SDS011;1015;49.756;6.994;2023-04-07T09:08:39;13.90;;;9.00;;
2021;SDS011;1015;49.756;6.994;2023-04-07T09:11:06;16.20;;;10.23;;
2021;SDS011;1015;49.756;6.994;2023-04-07T09:13:33;15.07;;;9.63;;
2021;SDS011;1015;49.756;6.994;2023-04-07T09:16:02;12.77;;;8.40;;
2021;SDS011;1015;49.756;6.994;2023-04-07T09:18:29;13.83;;;9.10;;
2021;SDS011;1015;49.756;6.994;2023-04-07T09:20:57;13.37;;;8.40;;
2021;SDS011;1015;49.756;6.994;2023-04-07T09:23:26;17.33;;;8.77;;
2021;SDS011;1015;49.756;6.994;2023-04-07T09:25:55;14.50;;;8.63;;
2021;SDS011;1015;49.756;6.994;2023-04-07T09:28:37;14.40;;;8.97;;
2021;SDS011;1015;49.756;6.994;2023-04-07T09:31:04;15.50;;;10.63;;
2021;SDS011;1015;49.756;6.994;2023-04-07T09:33:32;14.00;;;9.40;;
2021;SDS011;1015;49.756;6.994;2023-04-07T09:36:00;15.07;;;9.10;;
2021;SDS011;1015;49.756;6.994;2023-04-07T09:38:37;14.17;;;9.27;;
2021;SDS011;1015;49.756;6.994;2023-04-07T09:41:06;13.90;;;9.43;;
2021;SDS011;1015;49.756;6.994;2023-04-07T09:43:34;15.30;;;8.23;;
2021;SDS011;1015;49.756;6.994;2023-04-07T09:46:05;15.73;;;9.60;;
2021;SDS011;1015;49.756;6.994;2023-04-07T09:48:33;15.80;;;9.93;;
2021;SDS011;1015;49.756;6.994;2023-04-07T09:51:04;14.40;;;8.97;;
2021;SDS011;1015;49.756;6.994;2023-04-07T09:53:40;17.87;;;9.77;;
2021;SDS011;1015;49.756;6.994;2023-04-07T09:56:09;19.43;;;9.93;;
2021;SDS011;1015;49.756;6.994;2023-04-07T09:58:37;16.63;;;9.60;;
2021;SDS011;1015;49.756;6.994;2023-04-07T10:01:05;11.40;;;8.17;;
2021;SDS011;1015;49.756;6.994;2023-04-07T10:03:33;12.27;;;8.80;;
2021;SDS011;1015;49.756;6.994;2023-04-07T10:06:01;14.53;;;8.73;;
2021;SDS011;1015;49.756;6.994;2023-04-07T10:08:29;13.90;;;9.30;;
2021;SDS011;1015;49.756;6.994;2023-04-07T10:10:57;14.60;;;8.57;;
2021;SDS011;1015;49.756;6.994;2023-04-07T10:13:27;12.23;;;8.77;;
2021;SDS011;1015;49.756;6.994;2023-04-07T10:15:54;14.60;;;9.83;;
2021;SDS011;1015;49.756;6.994;2023-04-07T10:18:21;14.10;;;8.80;;
2021;SDS011;1015;49.756;6.994;2023-04-07T10:20:49;11.83;;;7.90;;
2021;SDS011;1015;49.756;6.994;2023-04-07T10:23:17;12.80;;;8.57;;
2021;SDS011;1015;49.756;6.994;2023-04-07T10:25:46;13.10;;;8.37;;
2021;SDS011;1015;49.756;6.994;2023-04-07T10:28:16;10.60;;;8.17;;
2021;SDS011;1015;49.756;6.994;2023-04-07T10:30:46;11.87;;;7.63;;
2021;SDS011;1015;49.756;6.994;2023-04-07T10:33:14;10.80;;;7.30;;
2021;SDS011;1015;49.756;6.994;2023-04-07T10:38:24;10.43;;;6.80;;
2021;SDS011;1015;49.756;6.994;2023-04-07T10:40:51;8.60;;;6.93;;
2021;SDS011;1015;49.756;6.994;2023-04-07T10:46:02;7.73;;;6.30;;
2021;SDS011;1015;49.756;6.994;2023-04-07T10:48:29;8.77;;;7.53;;
2021;SDS011;1015;49.756;6.994;2023-04-07T10:51:11;8.97;;;7.60;;
2021;SDS011;1015;49.756;6.994;2023-04-07T10:56:21;10.30;;;7.40;;
2021;SDS011;1015;49.756;6.994;2023-04-07T10:58:54;10.97;;;7.93;;
2021;SDS011;1015;49.756;6.994;2023-04-07T11:01:41;12.00;;;6.97;;
2021;SDS011;1015;49.756;6.994;2023-04-07T11:04:08;12.10;;;8.13;;
2021;SDS011;1015;49.756;6.994;2023-04-07T11:06:37;12.00;;;7.47;;
2021;SDS011;1015;49.756;6.994;2023-04-07T11:09:17;11.07;;;8.90;;
2021;SDS011;1015;49.756;6.994;2023-04-07T11:11:45;11.43;;;7.40;;
2021;SDS011;1015;49.756;6.994;2023-04-07T11:14:23;9.90;;;7.40;;
2021;SDS011;1015;49.756;6.994;2023-04-07T11:16:53;8.53;;;6.60;;
2021;SDS011;1015;49.756;6.994;2023-04-07T11:19:20;10.30;;;6.63;;
2021;SDS011;1015;49.756;6.994;2023-04-07T11:21:48;9.70;;;6.80;;
2021;SDS011;1015;49.756;6.994;2023-04-07T11:26:57;10.30;;;7.23;;
2021;SDS011;1015;49.756;6.994;2023-04-07T11:29:26;9.70;;;7.37;;
2021;SDS011;1015;49.756;6.994;2023-04-07T11:31:55;9.67;;;7.67;;
2021;SDS011;1015;49.756;6.994;2023-04-07T11:34:27;9.67;;;6.57;;
2021;SDS011;1015;49.756;6.994;2023-04-07T11:36:55;10.40;;;6.33;;
2021;SDS011;1015;49.756;6.994;2023-04-07T11:39:24;8.80;;;6.70;;
2021;SDS011;1015;49.756;6.994;2023-04-07T11:41:55;9.73;;;7.00;;
2021;SDS011;1015;49.756;6.994;2023-04-07T11:44:22;9.30;;;6.77;;
2021;SDS011;1015;49.756;6.994;2023-04-07T11:46:53;13.70;;;7.30;;
2021;SDS011;1015;49.756;6.994;2023-04-07T11:49:22;9.83;;;6.70;;
2021;SDS011;1015;49.756;6.994;2023-04-07T11:51:56;9.70;;;6.70;;
2021;SDS011;1015;49.756;6.994;2023-04-07T11:54:24;10.30;;;7.03;;
2021;SDS011;1015;49.756;6.994;2023-04-07T11:56:51;8.20;;;6.50;;
2021;SDS011;1015;49.756;6.994;2023-04-07T11:59:20;7.30;;;6.30;;
2021;SDS011;1015;49.756;6.994;2023-04-07T12:01:48;8.40;;;7.03;;
2021;SDS011;1015;49.756;6.994;2023-04-07T12:04:16;8.47;;;7.00;;
2021;SDS011;1015;49.756;6.994;2023-04-07T12:06:45;8.33;;;6.20;;
2021;SDS011;1015;49.756;6.994;2023-04-07T12:11:55;7.20;;;5.70;;
2021;SDS011;1015;49.756;6.994;2023-04-07T12:14:23;9.90;;;6.63;;
2021;SDS011;1015;49.756;6.994;2023-04-07T12:16:50;7.60;;;5.70;;
2021;SDS011;1015;49.756;6.994;2023-04-07T12:19:20;6.77;;;5.80;;
2021;SDS011;1015;49.756;6.994;2023-04-07T12:21:48;8.30;;;5.90;;
2021;SDS011;1015;49.756;6.994;2023-04-07T12:24:16;10.90;;;6.77;;
2021;SDS011;1015;49.756;6.994;2023-04-07T12:26:43;7.67;;;6.20;;
2021;SDS011;1015;49.756;6.994;2023-04-07T12:29:10;10.77;;;7.23;;
2021;SDS011;1015;49.756;6.994;2023-04-07T12:31:38;10.37;;;7.00;;
2021;SDS011;1015;49.756;6.994;2023-04-07T12:34:06;9.07;;;6.90;;
2021;SDS011;1015;49.756;6.994;2023-04-07T12:36:33;7.93;;;6.53;;
2021;SDS011;1015;49.756;6.994;2023-04-07T12:39:02;7.50;;;5.70;;
2021;SDS011;1015;49.756;6.994;2023-04-07T12:41:29;9.63;;;5.80;;
2021;SDS011;1015;49.756;6.994;2023-04-07T12:43:56;8.37;;;5.57;;
2021;SDS011;1015;49.756;6.994;2023-04-07T12:46:24;6.97;;;5.60;;
2021;SDS011;1015;49.756;6.994;2023-04-07T12:48:51;7.03;;;5.00;;
2021;SDS011;1015;49.756;6.994;2023-04-07T12:51:18;7.77;;;5.10;;
2021;SDS011;1015;49.756;6.994;2023-04-07T12:53:46;4.20;;;3.80;;
2021;SDS011;1015;49.756;6.994;2023-04-07T12:56:14;6.03;;;4.90;;
2021;SDS011;1015;49.756;6.994;2023-04-07T12:58:41;5.80;;;4.40;;
2021;SDS011;1015;49.756;6.994;2023-04-07T13:01:09;6.90;;;5.03;;
2021;SDS011;1015;49.756;6.994;2023-04-07T13:03:36;8.33;;;5.17;;
2021;SDS011;1015;49.756;6.994;2023-04-07T13:06:03;7.23;;;5.20;;
2021;SDS011;1015;49.756;6.994;2023-04-07T13:08:31;8.67;;;6.10;;
2021;SDS011;1015;49.756;6.994;2023-04-07T13:10:58;7.97;;;5.50;;
2021;SDS011;1015;49.756;6.994;2023-04-07T13:13:26;7.60;;;5.20;;
2021;SDS011;1015;49.756;6.994;2023-04-07T13:15:54;6.83;;;5.80;;
2021;SDS011;1015;49.756;6.994;2023-04-07T13:18:21;7.40;;;5.90;;
2021;SDS011;1015;49.756;6.994;2023-04-07T13:20:48;7.83;;;6.37;;
2021;SDS011;1015;49.756;6.994;2023-04-07T13:23:15;8.50;;;6.27;;
2021;SDS011;1015;49.756;6.994;2023-04-07T13:25:44;7.70;;;5.77;;
2021;SDS011;1015;49.756;6.994;2023-04-07T13:28:11;7.77;;;5.60;;
2021;SDS011;1015;49.756;6.994;2023-04-07T13:30:43;6.03;;;5.03;;
2021;SDS011;1015;49.756;6.994;2023-04-07T13:33:10;6.83;;;5.00;;
2021;SDS011;1015;49.756;6.994;2023-04-07T13:35:38;6.73;;;5.20;;
2021;SDS011;1015;49.756;6.994;2023-04-07T13:38:05;7.07;;;4.60;;
2021;SDS011;1015;49.756;6.994;2023-04-07T13:40:33;4.90;;;4.40;;
2021;SDS011;1015;49.756;6.994;2023-04-07T13:43:00;7.87;;;4.30;;
2021;SDS011;1015;49.756;6.994;2023-04-07T13:45:28;7.20;;;4.30;;
2021;SDS011;1015;49.756;6.994;2023-04-07T13:47:56;4.97;;;3.90;;
2021;SDS011;1015;49.756;6.994;2023-04-07T13:50:24;4.40;;;3.70;;
2021;SDS011;1015;49.756;6.994;2023-04-07T13:52:51;6.83;;;3.90;;
2021;SDS011;1015;49.756;6.994;2023-04-07T13:55:18;4.93;;;3.53;;
2021;SDS011;1015;49.756;6.994;2023-04-07T13:57:45;4.40;;;3.63;;
2021;SDS011;1015;49.756;6.994;2023-04-07T14:00:13;5.17;;;3.47;;
2021;SDS011;1015;49.756;6.994;2023-04-07T14:02:40;4.60;;;3.43;;
2021;SDS011;1015;49.756;6.994;2023-04-07T14:05:11;5.50;;;3.47;;
2021;SDS011;1015;49.756;6.994;2023-04-07T14:07:38;7.43;;;4.80;;
2021;SDS011;1015;49.756;6.994;2023-04-07T14:10:05;3.90;;;2.93;;
2021;SDS011;1015;49.756;6.994;2023-04-07T14:12:33;3.03;;;2.70;;
2021;SDS011;1015;49.756;6.994;2023-04-07T14:15:01;5.33;;;3.10;;
2021;SDS011;1015;49.756;6.994;2023-04-07T14:17:28;4.20;;;3.80;;
2021;SDS011;1015;49.756;6.994;2023-04-07T14:19:55;3.23;;;2.93;;
2021;SDS011;1015;49.756;6.994;2023-04-07T14:22:24;3.60;;;2.77;;
2021;SDS011;1015;49.756;6.994;2023-04-07T14:24:53;4.33;;;2.60;;
2021;SDS011;1015;49.756;6.994;2023-04-07T14:27:21;2.60;;;2.40;;
2021;SDS011;1015;49.756;6.994;2023-04-07T14:29:48;2.93;;;1.90;;
2021;SDS011;1015;49.756;6.994;2023-04-07T14:32:15;4.63;;;2.50;;
2021;SDS011;1015;49.756;6.994;2023-04-07T14:34:43;2.60;;;2.27;;
2021;SDS011;1015;49.756;6.994;2023-04-07T14:37:10;2.43;;;2.03;;
2021;SDS011;1015;49.756;6.994;2023-04-07T14:39:39;3.47;;;2.30;;
2021;SDS011;1015;49.756;6.994;2023-04-07T14:42:06;4.07;;;2.23;;
2021;SDS011;1015;49.756;6.994;2023-04-07T14:44:34;1.80;;;1.70;;
2021;SDS011;1015;49.756;6.994;2023-04-07T14:47:01;2.43;;;2.20;;
2021;SDS011;1015;49.756;6.994;2023-04-07T14:49:32;2.33;;;2.10;;
2021;SDS011;1015;49.756;6.994;2023-04-07T14:52:03;4.80;;;2.20;;
2021;SDS011;1015;49.756;6.994;2023-04-07T14:54:30;2.80;;;2.20;;
2021;SDS011;1015;49.756;6.994;2023-04-07T14:56:59;3.37;;;2.30;;
2021;SDS011;1015;49.756;6.994;2023-04-07T14:59:26;3.17;;;2.20;;
2021;SDS011;1015;49.756;6.994;2023-04-07T15:01:54;2.10;;;1.90;;
2021;SDS011;1015;49.756;6.994;2023-04-07T15:04:23;2.20;;;2.00;;
2021;SDS011;1015;49.756;6.994;2023-04-07T15:06:50;3.70;;;2.13;;
2021;SDS011;1015;49.756;6.994;2023-04-07T15:09:17;2.87;;;2.27;;
2021;SDS011;1015;49.756;6.994;2023-04-07T15:11:44;2.03;;;1.83;;
2021;SDS011;1015;49.756;6.994;2023-04-07T15:14:13;2.60;;;2.20;;
2021;SDS011;1015;49.756;6.994;2023-04-07T15:16:41;5.17;;;2.20;;
2021;SDS011;1015;49.756;6.994;2023-04-07T15:19:08;2.40;;;2.00;;
2021;SDS011;1015;49.756;6.994;2023-04-07T15:21:35;2.70;;;1.83;;
2021;SDS011;1015;49.756;6.994;2023-04-07T15:24:02;1.90;;;1.80;;
2021;SDS011;1015;49.756;6.994;2023-04-07T15:26:30;2.67;;;1.90;;
2021;SDS011;1015;49.756;6.994;2023-04-07T15:28:57;2.50;;;1.80;;
2021;SDS011;1015;49.756;6.994;2023-04-07T15:31:26;3.50;;;2.43;;
2021;SDS011;1015;49.756;6.994;2023-04-07T15:33:53;5.10;;;3.07;;
2021;SDS011;1015;49.756;6.994;2023-04-07T15:36:21;4.17;;;3.00;;
2021;SDS011;1015;49.756;6.994;2023-04-07T15:38:48;4.80;;;2.67;;
2021;SDS011;1015;49.756;6.994;2023-04-07T15:41:15;3.23;;;2.93;;
2021;SDS011;1015;49.756;6.994;2023-04-07T15:43:43;5.30;;;3.50;;
2021;SDS011;1015;49.756;6.994;2023-04-07T15:46:10;3.07;;;2.77;;
2021;SDS011;1015;49.756;6.994;2023-04-07T15:48:39;4.40;;;2.90;;
2021;SDS011;1015;49.756;6.994;2023-04-07T15:51:06;5.00;;;2.37;;
2021;SDS011;1015;49.756;6.994;2023-04-07T15:53:33;2.83;;;2.33;;
2021;SDS011;1015;49.756;6.994;2023-04-07T15:56:01;3.70;;;2.30;;
2021;SDS011;1015;49.756;6.994;2023-04-07T15:58:29;2.60;;;2.17;;
2021;SDS011;1015;49.756;6.994;2023-04-07T16:00:56;2.90;;;2.20;;
2021;SDS011;1015;49.756;6.994;2023-04-07T16:03:24;3.60;;;2.57;;
2021;SDS011;1015;49.756;6.994;2023-04-07T16:05:54;2.73;;;2.40;;
2021;SDS011;1015;49.756;6.994;2023-04-07T16:08:21;4.13;;;2.67;;
2021;SDS011;1015;49.756;6.994;2023-04-07T16:10:48;2.93;;;2.60;;
2021;SDS011;1015;49.756;6.994;2023-04-07T16:13:16;2.93;;;2.63;;
2021;SDS011;1015;49.756;6.994;2023-04-07T16:15:43;3.73;;;2.40;;
2021;SDS011;1015;49.756;6.994;2023-04-07T16:18:10;3.33;;;2.87;;
2021;SDS011;1015;49.756;6.994;2023-04-07T16:20:38;5.10;;;2.83;;
2021;SDS011;1015;49.756;6.994;2023-04-07T16:23:06;3.33;;;2.93;;
2021;SDS011;1015;49.756;6.994;2023-04-07T16:25:34;3.70;;;2.97;;
2021;SDS011;1015;49.756;6.994;2023-04-07T16:28:01;4.70;;;3.30;;
2021;SDS011;1015;49.756;6.994;2023-04-07T16:30:28;4.83;;;3.37;;
2021;SDS011;1015;49.756;6.994;2023-04-07T16:32:56;3.83;;;3.53;;
2021;SDS011;1015;49.756;6.994;2023-04-07T16:35:24;4.43;;;3.47;;
2021;SDS011;1015;49.756;6.994;2023-04-07T16:37:51;4.20;;;2.93;;
2021;SDS011;1015;49.756;6.994;2023-04-07T16:40:20;3.90;;;3.27;;
2021;SDS011;1015;49.756;6.994;2023-04-07T16:42:47;3.07;;;2.80;;
2021;SDS011;1015;49.756;6.994;2023-04-07T16:45:15;4.47;;;3.63;;
2021;SDS011;1015;49.756;6.994;2023-04-07T16:47:42;3.50;;;3.20;;
2021;SDS011;1015;49.756;6.994;2023-04-07T16:50:10;3.50;;;2.53;;
2021;SDS011;1015;49.756;6.994;2023-04-07T16:52:37;3.83;;;2.93;;
2021;SDS011;1015;49.756;6.994;2023-04-07T16:55:05;4.03;;;3.10;;
2021;SDS011;1015;49.756;6.994;2023-04-07T16:57:34;4.07;;;2.40;;
2021;SDS011;1015;49.756;6.994;2023-04-07T17:00:01;2.90;;;2.33;;
2021;SDS011;1015;49.756;6.994;2023-04-07T17:02:29;3.43;;;2.23;;
2021;SDS011;1015;49.756;6.994;2023-04-07T17:04:57;3.47;;;2.30;;
2021;SDS011;1015;49.756;6.994;2023-04-07T17:07:24;3.00;;;2.37;;
2021;SDS011;1015;49.756;6.994;2023-04-07T17:09:52;3.67;;;2.60;;
2021;SDS011;1015;49.756;6.994;2023-04-07T17:12:19;2.30;;;2.10;;
2021;SDS011;1015;49.756;6.994;2023-04-07T17:14:48;2.40;;;2.20;;
2021;SDS011;1015;49.756;6.994;2023-04-07T17:17:16;2.43;;;2.23;;
2021;SDS011;1015;49.756;6.994;2023-04-07T17:19:43;4.50;;;2.20;;
2021;SDS011;1015;49.756;6.994;2023-04-07T17:22:10;2.73;;;2.07;;
2021;SDS011;1015;49.756;6.994;2023-04-07T17:24:38;2.30;;;2.10;;
2021;SDS011;1015;49.756;6.994;2023-04-07T17:27:05;3.77;;;2.07;;
2021;SDS011;1015;49.756;6.994;2023-04-07T17:29:33;3.30;;;2.40;;
2021;SDS011;1015;49.756;6.994;2023-04-07T17:32:01;2.33;;;1.93;;
2021;SDS011;1015;49.756;6.994;2023-04-07T17:34:29;2.40;;;2.20;;
2021;SDS011;1015;49.756;6.994;2023-04-07T17:36:56;2.53;;;2.20;;
2021;SDS011;1015;49.756;6.994;2023-04-07T17:39:23;2.80;;;2.60;;
2021;SDS011;1015;49.756;6.994;2023-04-07T17:41:51;2.90;;;2.70;;
2021;SDS011;1015;49.756;6.994;2023-04-07T17:44:18;2.40;;;2.10;;
2021;SDS011;1015;49.756;6.994;2023-04-07T17:46:46;3.50;;;2.27;;
2021;SDS011;1015;49.756;6.994;2023-04-07T17:49:15;2.60;;;2.40;;
2021;SDS011;1015;49.756;6.994;2023-04-07T17:51:42;7.33;;;3.50;;
2021;SDS011;1015;49.756;6.994;2023-04-07T17:54:10;7.10;;;5.47;;
2021;SDS011;1015;49.756;6.994;2023-04-07T17:56:37;7.43;;;5.60;;
2021;SDS011;1015;49.756;6.994;2023-04-07T17:59:06;8.10;;;5.73;;
2021;SDS011;1015;49.756;6.994;2023-04-07T18:01:33;7.50;;;5.87;;
2021;SDS011;1015;49.756;6.994;2023-04-07T18:04:00;9.57;;;6.53;;
2021;SDS011;1015;49.756;6.994;2023-04-07T18:06:29;9.80;;;7.00;;
2021;SDS011;1015;49.756;6.994;2023-04-07T18:08:56;8.47;;;6.00;;
2021;SDS011;1015;49.756;6.994;2023-04-07T18:11:24;8.30;;;7.13;;
2021;SDS011;1015;49.756;6.994;2023-04-07T18:13:52;10.50;;;6.40;;
2021;SDS011;1015;49.756;6.994;2023-04-07T18:16:20;9.03;;;6.20;;
2021;SDS011;1015;49.756;6.994;2023-04-07T18:18:47;10.63;;;7.17;;
2021;SDS011;1015;49.756;6.994;2023-04-07T18:21:15;8.23;;;6.03;;
2021;SDS011;1015;49.756;6.994;2023-04-07T18:23:44;7.33;;;5.73;;
2021;SDS011;1015;49.756;6.994;2023-04-07T18:26:11;10.17;;;6.90;;
2021;SDS011;1015;49.756;6.994;2023-04-07T18:28:39;11.67;;;7.70;;
2021;SDS011;1015;49.756;6.994;2023-04-07T18:31:06;10.80;;;8.27;;
2021;SDS011;1015;49.756;6.994;2023-04-07T18:33:34;10.67;;;6.87;;
2021;SDS011;1015;49.756;6.994;2023-04-07T18:36:03;8.63;;;6.43;;
2021;SDS011;1015;49.756;6.994;2023-04-07T18:38:31;8.60;;;6.60;;
2021;SDS011;1015;49.756;6.994;2023-04-07T18:40:59;8.43;;;6.10;;
2021;SDS011;1015;49.756;6.994;2023-04-07T18:43:27;8.30;;;6.40;;
2021;SDS011;1015;49.756;6.994;2023-04-07T18:45:54;8.33;;;6.23;;
2021;SDS011;1015;49.756;6.994;2023-04-07T18:48:21;8.20;;;6.40;;
2021;SDS011;1015;49.756;6.994;2023-04-07T18:50:50;9.40;;;6.80;;
2021;SDS011;1015;49.756;6.994;2023-04-07T18:53:18;7.27;;;6.53;;
2021;SDS011;1015;49.756;6.994;2023-04-07T18:55:45;9.63;;;7.00;;
2021;SDS011;1015;49.756;6.994;2023-04-07T18:58:14;9.20;;;6.63;;
2021;SDS011;1015;49.756;6.994;2023-04-07T19:00:41;8.57;;;6.30;;
2021;SDS011;1015;49.756;6.994;2023-04-07T19:03:09;7.70;;;6.00;;
2021;SDS011;1015;49.756;6.994;2023-04-07T19:05:36;8.00;;;6.37;;
2021;SDS011;1015;49.756;6.994;2023-04-07T19:08:04;7.90;;;6.03;;
2021;SDS011;1015;49.756;6.994;2023-04-07T19:10:31;10.83;;;8.17;;
2021;SDS011;1015;49.756;6.994;2023-04-07T19:12:58;8.80;;;6.77;;
2021;SDS011;1015;49.756;6.994;2023-04-07T19:15:28;11.87;;;6.80;;
2021;SDS011;1015;49.756;6.994;2023-04-07T19:17:56;9.40;;;6.70;;
2021;SDS011;1015;49.756;6.994;2023-04-07T19:20:24;10.13;;;7.83;;
2021;SDS011;1015;49.756;6.994;2023-04-07T19:22:51;9.50;;;8.50;;
2021;SDS011;1015;49.756;6.994;2023-04-07T19:25:18;13.50;;;9.93;;
2021;SDS011;1015;49.756;6.994;2023-04-07T19:27:46;9.07;;;6.97;;
2021;SDS011;1015;49.756;6.994;2023-04-07T19:30:13;9.00;;;7.27;;
2021;SDS011;1015;49.756;6.994;2023-04-07T19:32:42;8.27;;;7.20;;
2021;SDS011;1015;49.756;6.994;2023-04-07T19:35:10;8.93;;;6.70;;
2021;SDS011;1015;49.756;6.994;2023-04-07T19:37:37;8.67;;;7.17;;
2021;SDS011;1015;49.756;6.994;2023-04-07T19:40:05;8.30;;;6.17;;
2021;SDS011;1015;49.756;6.994;2023-04-07T19:42:33;24.60;;;19.57;;
2021;SDS011;1015;49.756;6.994;2023-04-07T19:45:00;11.30;;;8.30;;
2021;SDS011;1015;49.756;6.994;2023-04-07T19:47:31;12.77;;;8.93;;
2021;SDS011;1015;49.756;6.994;2023-04-07T19:50:02;9.53;;;6.90;;
2021;SDS011;1015;49.756;6.994;2023-04-07T19:52:30;7.67;;;6.20;;
2021;SDS011;1015;49.756;6.994;2023-04-07T19:54:58;9.77;;;7.10;;
2021;SDS011;1015;49.756;6.994;2023-04-07T19:57:25;9.73;;;6.90;;
2021;SDS011;1015;49.756;6.994;2023-04-07T19:59:55;11.13;;;7.03;;
2021;SDS011;1015;49.756;6.994;2023-04-07T20:02:22;9.50;;;6.60;;
2021;SDS011;1015;49.756;6.994;2023-04-07T20:04:49;8.80;;;7.23;;
2021;SDS011;1015;49.756;6.994;2023-04-07T20:07:18;11.57;;;7.23;;
2021;SDS011;1015;49.756;6.994;2023-04-07T20:09:45;9.27;;;6.93;;
2021;SDS011;1015;49.756;6.994;2023-04-07T20:12:14;8.20;;;6.57;;
2021;SDS011;1015;49.756;6.994;2023-04-07T20:14:41;9.33;;;6.63;;
2021;SDS011;1015;49.756;6.994;2023-04-07T20:17:09;12.00;;;7.27;;
2021;SDS011;1015;49.756;6.994;2023-04-07T20:19:36;10.30;;;7.23;;
2021;SDS011;1015;49.756;6.994;2023-04-07T20:22:04;9.53;;;7.40;;
2021;SDS011;1015;49.756;6.994;2023-04-07T20:24:34;10.33;;;6.90;;
2021;SDS011;1015;49.756;6.994;2023-04-07T20:27:01;11.40;;;7.70;;
2021;SDS011;1015;49.756;6.994;2023-04-07T20:29:29;10.10;;;7.27;;
2021;SDS011;1015;49.756;6.994;2023-04-07T20:31:56;10.50;;;6.67;;
2021;SDS011;1015;49.756;6.994;2023-04-07T20:34:23;8.13;;;6.30;;
2021;SDS011;1015;49.756;6.994;2023-04-07T20:36:50;9.47;;;7.07;;
2021;SDS011;1015;49.756;6.994;2023-04-07T20:39:17;11.50;;;6.90;;
2021;SDS011;1015;49.756;6.994;2023-04-07T20:41:46;11.10;;;6.37;;
2021;SDS011;1015;49.756;6.994;2023-04-07T20:44:13;8.13;;;6.40;;
2021;SDS011;1015;49.756;6.994;2023-04-07T20:46:42;9.67;;;6.47;;
2021;SDS011;1015;49.756;6.994;2023-04-07T20:49:10;9.30;;;7.13;;
2021;SDS011;1015;49.756;6.994;2023-04-07T20:51:37;10.20;;;7.20;;
2021;SDS011;1015;49.756;6.994;2023-04-07T20:54:05;11.43;;;8.00;;
2021;SDS011;1015;49.756;6.994;2023-04-07T20:56:32;10.70;;;8.07;;
2021;SDS011;1015;49.756;6.994;2023-04-07T20:59:01;14.03;;;9.07;;
2021;SDS011;1015;49.756;6.994;2023-04-07T21:01:28;10.90;;;8.70;;
2021;SDS011;1015;49.756;6.994;2023-04-07T21:03:55;12.80;;;8.80;;
2021;SDS011;1015;49.756;6.994;2023-04-07T21:06:24;12.50;;;9.07;;
2021;SDS011;1015;49.756;6.994;2023-04-07T21:08:52;15.13;;;10.00;;
2021;SDS011;1015;49.756;6.994;2023-04-07T21:11:19;13.97;;;9.87;;
2021;SDS011;1015;49.756;6.994;2023-04-07T21:13:46;14.00;;;9.77;;
2021;SDS011;1015;49.756;6.994;2023-04-07T21:16:14;14.10;;;10.83;;
2021;SDS011;1015;49.756;6.994;2023-04-07T21:18:42;17.90;;;10.00;;
2021;SDS011;1015;49.756;6.994;2023-04-07T21:21:09;15.77;;;10.23;;
2021;SDS011;1015;49.756;6.994;2023-04-07T21:23:36;15.40;;;10.37;;
2021;SDS011;1015;49.756;6.994;2023-04-07T21:26:04;14.00;;;10.30;;
2021;SDS011;1015;49.756;6.994;2023-04-07T21:28:32;19.10;;;11.60;;
2021;SDS011;1015;49.756;6.994;2023-04-07T21:30:59;18.87;;;12.00;;
2021;SDS011;1015;49.756;6.994;2023-04-07T21:33:29;15.57;;;11.20;;
2021;SDS011;1015;49.756;6.994;2023-04-07T21:35:56;17.07;;;11.00;;
2021;SDS011;1015;49.756;6.994;2023-04-07T21:38:23;18.43;;;10.83;;
2021;SDS011;1015;49.756;6.994;2023-04-07T21:40:50;20.33;;;11.27;;
2021;SDS011;1015;49.756;6.994;2023-04-07T21:43:17;16.77;;;11.50;;
2021;SDS011;1015;49.756;6.994;2023-04-07T21:45:46;16.63;;;11.47;;
2021;SDS011;1015;49.756;6.994;2023-04-07T21:48:13;16.07;;;11.10;;
2021;SDS011;1015;49.756;6.994;2023-04-07T21:50:46;17.70;;;11.80;;
2021;SDS011;1015;49.756;6.994;2023-04-07T21:53:13;21.13;;;12.07;;
2021;SDS011;1015;49.756;6.994;2023-04-07T21:55:40;18.90;;;11.30;;
2021;SDS011;1015;49.756;6.994;2023-04-07T21:58:07;17.80;;;12.03;;
2021;SDS011;1015;49.756;6.994;2023-04-07T22:00:35;19.87;;;12.33;;
2021;SDS011;1015;49.756;6.994;2023-04-07T22:03:03;17.73;;;11.73;;
2021;SDS011;1015;49.756;6.994;2023-04-07T22:05:30;14.87;;;10.80;;
2021;SDS011;1015;49.756;6.994;2023-04-07T22:07:59;15.43;;;11.10;;
2021;SDS011;1015;49.756;6.994;2023-04-07T22:10:27;16.80;;;10.47;;
2021;SDS011;1015;49.756;6.994;2023-04-07T22:12:54;17.53;;;12.17;;
2021;SDS011;1015;49.756;6.994;2023-04-07T22:15:21;16.17;;;11.13;;
2021;SDS011;1015;49.756;6.994;2023-04-07T22:17:49;14.77;;;10.47;;
2021;SDS011;1015;49.756;6.994;2023-04-07T22:20:16;19.47;;;11.33;;
2021;SDS011;1015;49.756;6.994;2023-04-07T22:22:43;16.93;;;11.10;;
2021;SDS011;1015;49.756;6.994;2023-04-07T22:25:12;16.50;;;11.97;;
2021;SDS011;1015;49.756;6.994;2023-04-07T22:27:39;18.87;;;10.70;;
2021;SDS011;1015;49.756;6.994;2023-04-07T22:30:07;14.40;;;11.30;;
2021;SDS011;1015;49.756;6.994;2023-04-07T22:32:35;16.20;;;11.10;;
2021;SDS011;1015;49.756;6.994;2023-04-07T22:35:02;17.83;;;11.10;;
2021;SDS011;1015;49.756;6.994;2023-04-07T22:37:29;16.60;;;10.70;;
2021;SDS011;1015;49.756;6.994;2023-04-07T22:39:57;16.50;;;11.13;;
2021;SDS011;1015;49.756;6.994;2023-04-07T22:42:25;16.17;;;10.57;;
2021;SDS011;1015;49.756;6.994;2023-04-07T22:44:53;15.97;;;10.13;;
2021;SDS011;1015;49.756;6.994;2023-04-07T22:47:20;18.17;;;10.80;;
2021;SDS011;1015;49.756;6.994;2023-04-07T22:49:47;17.13;;;10.53;;